Time;durP1;ratioP1;P1;durP2;ratioP2;P2;SDS_P1;SDS_P2;PMS_P1;PMS_P2;Temp;Humidity;BMP_temperature;BMP_pressure;BME280_temperature;BME280_humidity;BME280_pressure;Samples;Min_cycle;Max_cycle;Signal;HPM_P1;HPM_P2
2022/06/16 00:00:18;;;;;;;2.75;2.50;;;16.80;79.20;;;;;;4992903;28;20035;-78
2022/06/16 00:02:49;;;;;;;3.85;3.03;;;16.80;79.30;;;;;;4993369;28;20045;-78
2022/06/16 00:05:21;;;;;;;3.50;2.83;;;16.80;79.50;;;;;;4981270;28;20086;-78
2022/06/16 00:07:47;;;;;;;4.15;3.50;;;16.80;79.50;;;;;;5011364;28;20038;-78
2022/06/16 00:10:13;;;;;;;3.40;2.90;;;16.80;79.60;;;;;;5008584;28;20034;-79
2022/06/16 00:12:39;;;;;;;5.32;3.20;;;16.80;79.60;;;;;;5014242;28;20486;-78
2022/06/16 00:15:07;;;;;;;5.20;3.20;;;16.90;80.20;;;;;;4997770;28;20045;-79
2022/06/16 00:17:33;;;;;;;4.63;3.00;;;16.80;80.00;;;;;;5019532;28;20515;-78
2022/06/16 00:20:01;;;;;;;5.32;3.40;;;16.80;80.00;;;;;;4997536;28;20022;-78
2022/06/16 00:22:27;;;;;;;4.05;3.42;;;16.80;80.90;;;;;;4996367;28;20034;-78
2022/06/16 00:24:54;;;;;;;4.18;2.70;;;16.70;81.30;;;;;;5009596;28;20038;-78
2022/06/16 00:27:19;;;;;;;3.38;3.00;;;16.60;82.20;;;;;;5008142;28;20488;-78
2022/06/16 00:29:45;;;;;;;3.17;2.88;;;16.60;82.40;;;;;;4995170;28;20076;-79
2022/06/16 00:32:11;;;;;;;3.03;2.83;;;16.50;83.00;;;;;;5009489;28;20061;-78
2022/06/16 00:34:37;;;;;;;3.53;3.13;;;16.40;82.80;;;;;;5001178;28;20026;-79
2022/06/16 00:37:03;;;;;;;4.22;3.67;;;16.40;83.50;;;;;;4995888;28;20616;-79
2022/06/16 00:39:29;;;;;;;4.00;3.03;;;16.20;84.40;;;;;;4987522;28;20038;-78
2022/06/16 00:41:55;;;;;;;3.35;3.05;;;16.20;85.20;;;;;;5009956;28;20040;-78
2022/06/16 00:44:30;;;;;;;4.72;3.20;;;16.10;85.30;;;;;;5004019;28;20044;-78
2022/06/16 00:46:56;;;;;;;3.53;3.22;;;16.10;84.70;;;;;;5026508;28;20025;-78
2022/06/16 00:49:23;;;;;;;4.57;3.28;;;16.10;85.00;;;;;;4982897;28;20493;-77
2022/06/16 00:51:56;;;;;;;2.90;2.70;;;16.10;86.70;;;;;;4993061;28;20034;-78
2022/06/16 00:54:45;;;;;;;4.03;2.83;;;16.00;87.30;;;;;;5011321;28;20026;-78
2022/06/16 00:57:18;;;;;;;4.00;3.33;;;16.00;87.40;;;;;;5032573;28;20027;-78
2022/06/16 00:59:45;;;;;;;3.25;2.95;;;16.00;87.80;;;;;;5008755;28;20416;-78
2022/06/16 01:02:11;;;;;;;3.47;3.17;;;16.00;88.70;;;;;;5042809;28;20038;-78
2022/06/16 01:04:52;;;;;;;4.40;3.35;;;16.00;89.40;;;;;;5005996;28;20030;-79
2022/06/16 01:07:29;;;;;;;3.55;3.10;;;15.90;90.40;;;;;;4980457;28;20148;-78
2022/06/16 01:09:56;;;;;;;4.38;3.45;;;15.90;90.20;;;;;;5013200;28;20042;-78
2022/06/16 01:15:43;;;;;;;3.85;3.42;;;15.80;90.80;;;;;;5012464;28;20048;-79
2022/06/16 01:18:28;;;;;;;4.50;4.00;;;15.80;91.10;;;;;;4994452;28;20639;-79
2022/06/16 01:21:10;;;;;;;3.47;3.17;;;15.80;91.70;;;;;;5009171;28;20029;-79
2022/06/16 01:24:00;;;;;;;4.75;3.75;;;15.80;92.10;;;;;;4981202;28;20040;-77
2022/06/16 01:26:38;;;;;;;6.35;3.38;;;15.80;92.20;;;;;;4987029;28;20035;-79
2022/06/16 01:29:23;;;;;;;5.47;3.60;;;15.90;92.20;;;;;;4996719;28;20038;-79
2022/06/16 01:31:49;;;;;;;4.30;3.63;;;15.90;92.10;;;;;;4990207;28;20523;-78
2022/06/16 01:34:29;;;;;;;4.07;3.67;;;16.00;92.90;;;;;;4995421;28;20037;-79
2022/06/16 01:37:33;;;;;;;4.13;3.55;;;16.00;92.80;;;;;;5012197;28;20030;-79
2022/06/16 01:40:17;;;;;;;5.65;3.88;;;16.00;92.60;;;;;;5033061;28;20043;-79
2022/06/16 01:43:00;;;;;;;5.13;4.00;;;16.00;92.20;;;;;;5007027;28;20480;-79
2022/06/16 01:45:37;;;;;;;5.00;3.58;;;16.10;92.60;;;;;;5014363;28;20034;-78
2022/06/16 01:48:07;;;;;;;4.38;3.60;;;16.10;93.00;;;;;;4994773;28;20057;-78
2022/06/16 01:50:40;;;;;;;4.53;4.13;;;16.00;93.30;;;;;;5010531;28;20032;-79
2022/06/16 01:53:14;;;;;;;4.25;3.85;;;16.00;93.80;;;;;;4992940;28;20764;-78
2022/06/16 01:56:01;;;;;;;4.85;3.55;;;15.90;94.30;;;;;;5002136;28;20511;-79
2022/06/16 01:58:33;;;;;;;4.20;3.75;;;15.80;94.60;;;;;;5019257;28;20722;-79
2022/06/16 02:01:03;;;;;;;4.00;3.67;;;15.80;94.60;;;;;;5006722;28;20088;-78
2022/06/16 02:03:35;;;;;;;6.57;4.30;;;15.70;94.20;;;;;;5016572;28;20088;-77
2022/06/16 02:06:26;;;;;;;4.68;3.78;;;15.70;94.00;;;;;;5006870;28;20050;-79
2022/06/16 02:08:57;;;;;;;4.85;4.20;;;15.70;94.70;;;;;;5000522;28;20076;-78
2022/06/16 02:11:26;;;;;;;6.93;4.18;;;15.60;94.40;;;;;;4993258;28;20162;-78
2022/06/16 02:14:28;;;;;;;4.63;3.85;;;15.60;94.20;;;;;;5035686;28;20077;-79
2022/06/16 02:17:01;;;;;;;6.85;3.88;;;15.60;94.20;;;;;;5006792;28;20046;-78
2022/06/16 02:19:28;;;;;;;3.92;3.60;;;15.60;95.50;;;;;;4999801;28;20042;-76
2022/06/16 02:21:55;;;;;;;7.25;4.30;;;15.50;96.00;;;;;;4985761;28;20084;-79
2022/06/16 02:24:24;;;;;;;6.35;4.30;;;15.40;95.50;;;;;;4991628;28;20034;-78
2022/06/16 02:26:52;;;;;;;5.13;4.63;;;15.40;95.80;;;;;;5009407;28;20036;-77
2022/06/16 02:29:29;;;;;;;4.88;3.95;;;15.30;96.90;;;;;;4999980;28;20057;-79
2022/06/16 02:32:08;;;;;;;4.72;4.22;;;15.20;97.00;;;;;;5035643;28;20025;-79
2022/06/16 02:34:57;;;;;;;7.10;4.68;;;15.20;97.30;;;;;;4994265;28;20481;-77
2022/06/16 02:37:26;;;;;;;4.90;3.80;;;15.20;97.40;;;;;;5004414;28;20053;-79
2022/06/16 02:39:58;;;;;;;5.30;4.28;;;15.10;97.90;;;;;;5010640;28;20132;-77
2022/06/16 02:42:46;;;;;;;5.05;4.28;;;15.10;98.60;;;;;;5016628;28;20026;-77
2022/06/16 02:45:25;;;;;;;4.78;3.58;;;15.00;99.10;;;;;;5006696;28;20080;-79
2022/06/16 02:48:10;;;;;;;4.80;4.28;;;15.00;99.00;;;;;;5010785;28;20057;-78
2022/06/16 02:50:38;;;;;;;5.10;4.05;;;15.00;99.90;;;;;;5002542;28;20030;-78
2022/06/16 02:53:18;;;;;;;5.00;3.92;;;14.90;99.90;;;;;;5011105;28;20672;-78
2022/06/16 02:55:47;;;;;;;4.95;4.00;;;14.90;99.90;;;;;;5007986;28;20032;-79
2022/06/16 02:58:18;;;;;;;4.72;4.13;;;14.80;99.90;;;;;;5018918;28;20045;-79
2022/06/16 03:00:52;;;;;;;5.03;3.85;;;14.60;99.90;;;;;;4998869;28;20025;-77
2022/06/16 03:03:19;;;;;;;6.32;4.00;;;14.60;99.90;;;;;;5004299;28;20030;-78
2022/06/16 03:05:49;;;;;;;5.57;4.13;;;14.60;99.90;;;;;;4975298;28;20034;-79
2022/06/16 03:08:15;;;;;;;4.70;4.30;;;14.60;99.90;;;;;;4976582;28;20037;-79
2022/06/16 03:10:50;;;;;;;4.35;3.95;;;14.60;99.90;;;;;;4995300;28;20054;-77
2022/06/16 03:13:21;;;;;;;9.68;4.57;;;14.60;99.90;;;;;;4998571;28;20506;-80
2022/06/16 03:15:49;;;;;;;6.90;4.20;;;14.70;99.90;;;;;;4996372;28;20021;-80
2022/06/16 03:18:16;;;;;;;6.95;3.90;;;14.70;99.90;;;;;;4999085;28;20042;-78
2022/06/16 03:20:44;;;;;;;6.78;4.55;;;14.70;99.90;;;;;;5007025;28;20022;-78
2022/06/16 03:23:09;;;;;;;7.07;4.18;;;14.70;99.90;;;;;;4991084;28;20213;-78
2022/06/16 03:25:37;;;;;;;7.22;4.63;;;14.60;99.90;;;;;;4993476;28;20075;-77
2022/06/16 03:28:05;;;;;;;5.47;4.20;;;14.60;99.90;;;;;;5017986;28;20405;-80
2022/06/16 03:30:33;;;;;;;7.00;4.40;;;14.60;99.90;;;;;;5003507;28;20033;-79
2022/06/16 03:33:03;;;;;;;9.13;4.35;;;14.60;99.90;;;;;;5016145;28;20038;-77
2022/06/16 03:35:30;;;;;;;4.40;3.65;;;14.60;99.90;;;;;;4995514;28;20026;-78
2022/06/16 03:38:23;;;;;;;4.18;3.72;;;14.60;99.90;;;;;;4996674;28;20037;-79
2022/06/16 03:40:45;;;;;;;4.45;4.05;;;14.70;99.90;;;;;;4991648;28;20038;-78
2022/06/16 03:43:10;;;;;;;5.07;3.88;;;14.60;99.90;;;;;;5008407;28;20022;-77
2022/06/16 03:45:38;;;;;;;4.95;3.67;;;14.60;99.90;;;;;;4994080;28;20029;-79
2022/06/16 03:48:04;;;;;;;4.28;3.88;;;14.60;99.90;;;;;;5003632;28;20034;-78
2022/06/16 03:50:32;;;;;;;6.43;3.63;;;14.60;99.90;;;;;;4997071;28;20511;-78
2022/06/16 03:53:02;;;;;;;4.30;3.90;;;14.60;99.90;;;;;;5002274;28;20150;-78
2022/06/16 03:55:28;;;;;;;5.15;4.03;;;14.60;99.90;;;;;;4997866;28;20121;-78
2022/06/16 03:57:54;;;;;;;4.40;3.90;;;14.60;99.90;;;;;;4989751;28;20062;-78
2022/06/16 04:00:22;;;;;;;4.43;4.00;;;14.60;99.90;;;;;;5005262;28;20042;-79
2022/06/16 04:03:59;;;;;;;4.72;3.78;;;14.60;99.90;;;;;;5011035;28;20138;-80
2022/06/16 04:05:35;;;;;;;4.90;3.70;;;14.60;99.90;;;;;;5005174;28;20340;-79
2022/06/16 04:08:07;;;;;;;5.40;3.72;;;14.60;99.90;;;;;;4994764;28;20616;-79
2022/06/16 04:10:33;;;;;;;4.97;4.10;;;14.70;99.90;;;;;;4999205;28;20053;-77
2022/06/16 04:13:05;;;;;;;4.43;4.03;;;14.70;99.90;;;;;;5012630;28;20384;-80
2022/06/16 04:15:32;;;;;;;4.97;3.60;;;14.70;99.90;;;;;;5002723;28;20109;-79
2022/06/16 04:17:59;;;;;;;4.43;3.85;;;14.80;99.90;;;;;;4989457;28;20058;-79
2022/06/16 04:20:35;;;;;;;6.22;4.40;;;14.90;99.90;;;;;;5003441;28;20038;-81
2022/06/16 04:23:10;;;;;;;7.93;4.57;;;15.00;99.90;;;;;;5009578;28;20105;-80
2022/06/16 04:25:36;;;;;;;4.72;4.10;;;15.10;99.90;;;;;;5017303;28;20116;-78
2022/06/16 04:28:12;;;;;;;4.95;4.22;;;15.20;99.90;;;;;;5008510;28;20044;-80
2022/06/16 04:30:47;;;;;;;4.30;3.90;;;15.30;99.90;;;;;;5009381;28;20033;-81
2022/06/16 04:33:13;;;;;;;5.05;4.55;;;15.30;99.90;;;;;;5019252;28;20034;-80
2022/06/16 04:35:41;;;;;;;4.60;3.90;;;15.40;99.90;;;;;;4990345;28;20145;-80
2022/06/16 04:38:08;;;;;;;5.15;3.83;;;15.50;99.90;;;;;;5019957;28;20022;-78
2022/06/16 04:40:36;;;;;;;4.35;3.60;;;15.60;99.90;;;;;;5022484;28;20029;-80
2022/06/16 04:43:15;;;;;;;3.97;3.65;;;15.60;99.90;;;;;;5004820;28;20065;-81
2022/06/16 04:45:42;;;;;;;4.75;3.03;;;15.70;99.90;;;;;;5018908;28;20026;-81
2022/06/16 04:48:09;;;;;;;4.00;3.40;;;15.80;99.90;;;;;;4994561;28;20030;-79
2022/06/16 04:50:39;;;;;;;3.95;3.55;;;15.90;99.90;;;;;;4990459;28;20029;-78
2022/06/16 04:53:05;;;;;;;4.00;3.58;;;16.00;99.90;;;;;;5003051;28;20045;-77
2022/06/16 04:55:39;;;;;;;5.70;3.92;;;16.10;99.90;;;;;;4995150;28;20026;-79
2022/06/16 04:58:23;;;;;;;3.30;2.97;;;16.20;99.90;;;;;;5003742;28;20030;-80
2022/06/16 05:00:55;;;;;;;3.45;2.92;;;16.20;99.90;;;;;;4994137;28;20061;-80
2022/06/16 05:03:39;;;;;;;3.47;2.70;;;16.30;99.90;;;;;;5007719;28;20052;-80
2022/06/16 05:06:17;;;;;;;3.92;3.10;;;16.30;99.90;;;;;;5001258;28;20072;-81
2022/06/16 05:09:03;;;;;;;4.32;3.08;;;16.40;99.90;;;;;;5010196;28;20049;-79
2022/06/16 05:11:49;;;;;;;4.43;2.92;;;16.40;99.90;;;;;;5013159;28;20037;-79
2022/06/16 05:14:33;;;;;;;3.33;3.00;;;16.60;99.90;;;;;;5005266;28;20053;-79
2022/06/16 05:17:13;;;;;;;4.57;2.72;;;16.70;99.90;;;;;;4993423;28;20494;-78
2022/06/16 05:19:58;;;;;;;3.40;3.10;;;16.90;99.90;;;;;;5007223;28;20068;-80
2022/06/16 05:22:44;;;;;;;;;;;17.10;99.90;;;;;;5005157;28;20045;-79
2022/06/16 05:25:15;;;;;;;3.45;2.55;;;17.30;99.40;;;;;;4995563;28;19921;-79
2022/06/16 05:28:02;;;;;;;2.55;2.35;;;17.60;98.00;;;;;;5007148;28;20049;-79
2022/06/16 05:31:00;;;;;;;3.35;2.47;;;17.90;96.50;;;;;;5010471;28;20033;-79
2022/06/16 05:33:43;;;;;;;2.40;2.20;;;18.30;94.50;;;;;;5006398;28;20120;-81
2022/06/16 05:36:46;;;;;;;2.50;2.20;;;18.70;92.90;;;;;;5000019;28;20034;-80
2022/06/16 05:39:30;;;;;;;;;;;19.20;92.30;;;;;;5022450;28;20046;-80
2022/06/16 05:42:20;;;;;;;3.60;2.88;;;19.60;89.30;;;;;;4994865;28;19960;-80
2022/06/16 05:45:12;;;;;;;2.22;2.03;;;19.70;88.60;;;;;;4997405;28;20034;-80
2022/06/16 05:47:48;;;;;;;3.80;2.60;;;19.80;85.80;;;;;;4991469;28;20113;-79
2022/06/16 05:50:16;;;;;;;2.50;2.35;;;20.00;86.60;;;;;;5010242;28;20533;-79
2022/06/16 05:52:43;;;;;;;3.53;2.60;;;20.10;86.00;;;;;;4994538;28;20034;-81
2022/06/16 05:55:19;;;;;;;2.67;2.47;;;20.50;86.60;;;;;;5010131;28;20030;-79
2022/06/16 05:57:45;;;;;;;2.58;2.38;;;20.90;83.10;;;;;;5012942;28;20041;-78
2022/06/16 06:00:13;;;;;;;3.28;2.17;;;21.10;81.90;;;;;;5001198;28;20022;-79
2022/06/16 06:02:55;;;;;;;2.58;2.38;;;21.40;82.90;;;;;;5009448;28;20052;-81
2022/06/16 06:05:22;;;;;;;2.60;2.38;;;21.60;77.80;;;;;;4997991;28;20030;-81
2022/06/16 06:18:49;;;;;;;5.40;2.53;;;23.10;70.90;;;;;;5012301;28;20030;-81
2022/06/16 06:21:15;;;;;;;2.42;2.22;;;23.00;69.60;;;;;;5000571;28;20087;-81
2022/06/16 06:23:41;;;;;;;2.50;2.30;;;23.00;72.40;;;;;;4992244;28;20038;-81
2022/06/16 06:26:08;;;;;;;2.67;2.10;;;22.80;70.00;;;;;;5008694;28;20087;-81
2022/06/16 06:28:34;;;;;;;2.70;2.50;;;23.00;68.70;;;;;;4985937;28;20042;-79
2022/06/16 06:31:00;;;;;;;2.38;2.13;;;23.20;71.60;;;;;;5002203;28;20030;-80
2022/06/16 06:33:26;;;;;;;2.97;2.55;;;23.40;74.20;;;;;;4996974;28;20038;-80
2022/06/16 06:35:51;;;;;;;3.38;2.65;;;23.70;69.10;;;;;;5008507;28;20425;-81
2022/06/16 06:38:17;;;;;;;2.10;2.00;;;24.10;69.40;;;;;;5009320;28;20038;-80
2022/06/16 06:40:43;;;;;;;2.78;2.10;;;24.30;66.70;;;;;;4995190;28;20037;-80
2022/06/16 06:43:09;;;;;;;3.05;2.10;;;24.40;65.30;;;;;;5008367;28;20481;-77
2022/06/16 06:45:35;;;;;;;2.30;2.10;;;24.40;67.80;;;;;;5014185;28;20162;-79
2022/06/16 06:48:03;;;;;;;2.58;2.08;;;24.60;68.00;;;;;;4994535;28;20045;-78
2022/06/16 06:50:38;;;;;;;2.40;2.20;;;24.90;68.00;;;;;;4998717;28;20042;-77
2022/06/16 06:53:04;;;;;;;3.33;2.35;;;25.30;65.40;;;;;;5006207;28;20026;-79
2022/06/16 06:55:30;;;;;;;1.98;1.70;;;25.40;63.30;;;;;;5004099;28;20053;-80
2022/06/16 06:57:57;;;;;;;2.50;2.30;;;25.70;62.50;;;;;;5005403;28;20211;-78
2022/06/16 07:00:25;;;;;;;5.78;2.72;;;26.00;63.20;;;;;;5015276;28;20038;-79
2022/06/16 07:02:51;;;;;;;2.20;2.00;;;25.90;59.20;;;;;;4994120;28;20030;-79
2022/06/16 07:05:17;;;;;;;2.08;1.95;;;25.70;59.50;;;;;;4996606;28;20059;-80
2022/06/16 07:07:43;;;;;;;2.60;2.38;;;25.70;61.60;;;;;;5002060;28;20026;-80
2022/06/16 07:10:10;;;;;;;1.88;1.77;;;25.70;60.40;;;;;;5011270;28;20062;-77
2022/06/16 07:12:36;;;;;;;2.95;2.05;;;25.80;60.10;;;;;;5012550;28;20589;-80
2022/06/16 07:15:04;;;;;;;2.75;2.05;;;26.00;61.60;;;;;;5002607;28;20051;-79
2022/06/16 07:17:30;;;;;;;2.45;2.10;;;26.20;61.20;;;;;;5013841;28;20045;-78
2022/06/16 07:19:56;;;;;;;2.03;1.77;;;26.50;59.50;;;;;;5000855;28;20038;-79
2022/06/16 07:22:22;;;;;;;2.13;1.70;;;26.80;59.70;;;;;;5009935;28;20034;-78
2022/06/16 07:24:48;;;;;;;2.47;2.28;;;27.00;58.60;;;;;;4996323;28;20025;-78
2022/06/16 07:27:16;;;;;;;3.40;2.10;;;27.00;57.10;;;;;;4994363;28;20460;-79
2022/06/16 07:29:42;;;;;;;2.40;2.20;;;27.00;59.30;;;;;;5009899;28;20400;-79
2022/06/16 07:32:08;;;;;;;2.00;1.85;;;27.10;57.20;;;;;;5027388;28;20062;-78
2022/06/16 07:34:34;;;;;;;1.77;1.67;;;27.20;58.80;;;;;;5000113;28;20030;-79
2022/06/16 07:37:00;;;;;;;2.13;1.92;;;27.30;58.20;;;;;;5002493;28;20589;-79
2022/06/16 07:39:26;;;;;;;2.15;1.95;;;27.30;62.50;;;;;;5012343;28;20540;-81
2022/06/16 07:41:52;;;;;;;3.55;2.10;;;27.30;58.30;;;;;;5008477;28;20038;-79
2022/06/16 07:44:18;;;;;;;2.72;2.03;;;27.30;57.00;;;;;;5009596;28;20026;-80
2022/06/16 07:46:46;;;;;;;2.10;1.90;;;27.30;56.20;;;;;;5013444;28;20037;-80
2022/06/16 07:49:15;;;;;;;2.20;2.00;;;27.30;57.20;;;;;;4995772;28;20034;-81
2022/06/16 07:51:42;;;;;;;2.22;2.00;;;27.50;57.50;;;;;;5008078;28;20177;-80
2022/06/16 07:54:10;;;;;;;2.85;2.03;;;27.80;55.50;;;;;;5006569;28;20164;-79
2022/06/16 07:56:36;;;;;;;2.13;2.00;;;28.30;55.80;;;;;;4995762;28;20038;-80
2022/06/16 07:59:02;;;;;;;2.35;2.15;;;28.80;55.00;;;;;;4978056;28;20144;-78
2022/06/16 08:01:28;;;;;;;2.42;2.10;;;29.20;54.30;;;;;;5009136;28;20069;-78
2022/06/16 08:03:54;;;;;;;3.80;2.30;;;29.50;53.70;;;;;;4985437;28;20092;-79
2022/06/16 08:06:27;;;;;;;2.28;2.10;;;29.60;54.00;;;;;;5012694;28;20049;-79
2022/06/16 08:08:54;;;;;;;2.47;2.22;;;29.60;52.50;;;;;;5014512;28;20044;-82
2022/06/16 08:14:04;;;;;;;2.75;2.55;;;29.50;53.50;;;;;;5007977;28;20030;-80
2022/06/16 08:16:33;;;;;;;2.30;2.20;;;29.30;53.80;;;;;;5014230;28;20047;-80
2022/06/16 08:19:00;;;;;;;1.98;1.88;;;29.30;53.90;;;;;;5032096;28;20053;-80
2022/06/16 08:21:26;;;;;;;3.00;2.10;;;29.20;51.90;;;;;;5022606;28;20041;-79
2022/06/16 08:23:52;;;;;;;2.50;2.30;;;28.90;54.30;;;;;;5013039;28;20132;-78
2022/06/16 08:26:19;;;;;;;2.03;1.90;;;28.90;53.60;;;;;;5010631;28;20132;-78
2022/06/16 08:28:46;;;;;;;2.20;2.00;;;28.90;54.90;;;;;;4995512;28;20034;-79
2022/06/16 08:31:12;;;;;;;2.10;1.95;;;28.80;54.60;;;;;;5012798;28;20034;-80
2022/06/16 08:33:39;;;;;;;2.22;2.05;;;28.90;53.60;;;;;;5001689;28;20088;-78
2022/06/16 08:36:06;;;;;;;2.65;2.30;;;28.90;52.30;;;;;;5015843;28;20117;-79
2022/06/16 08:38:32;;;;;;;2.33;2.17;;;28.90;53.70;;;;;;4986129;28;20330;-78
2022/06/16 08:41:13;;;;;;;1.98;1.80;;;28.80;53.70;;;;;;5001852;28;20697;-78
2022/06/16 08:44:15;;;;;;;2.30;2.10;;;28.70;54.10;;;;;;5007726;28;20038;-78
2022/06/16 08:47:09;;;;;;;3.63;2.30;;;28.60;56.60;;;;;;5021783;28;20110;-79
2022/06/16 08:49:42;;;;;;;2.50;1.98;;;28.80;51.70;;;;;;5006710;28;20034;-80
2022/06/16 08:52:49;;;;;;;2.17;2.03;;;29.00;52.70;;;;;;5029076;28;20476;-78
2022/06/16 08:55:50;;;;;;;2.28;2.08;;;29.20;50.80;;;;;;5000325;28;20030;-79
2022/06/16 08:58:41;;;;;;;4.93;2.33;;;29.20;54.40;;;;;;5003057;28;20050;-79
2022/06/16 09:01:17;;;;;;;3.70;2.50;;;29.20;53.80;;;;;;5003675;28;20472;-80
2022/06/16 09:03:50;;;;;;;2.45;2.03;;;29.20;54.90;;;;;;4992749;28;20035;-80
2022/06/16 09:06:33;;;;;;;3.53;2.17;;;29.40;53.90;;;;;;4986065;28;20037;-78
2022/06/16 09:08:59;;;;;;;2.20;2.00;;;29.60;52.90;;;;;;5012930;28;20037;-80
2022/06/16 09:11:43;;;;;;;2.22;2.03;;;29.60;49.10;;;;;;5011335;28;20113;-79
2022/06/16 09:17:41;;;;;;;3.83;2.63;;;29.20;50.10;;;;;;5007079;28;20034;-79
2022/06/16 09:20:33;;;;;;;3.05;2.03;;;28.80;51.00;;;;;;5005144;28;20133;-79
2022/06/16 09:23:08;;;;;;;2.25;2.15;;;28.50;53.40;;;;;;5007901;28;20034;-79
2022/06/16 09:26:09;;;;;;;2.58;1.85;;;28.30;52.60;;;;;;5009373;28;20432;-79
2022/06/16 09:28:52;;;;;;;2.88;2.20;;;28.20;53.60;;;;;;4982330;28;20038;-78
2022/06/16 09:31:44;;;;;;;3.45;2.40;;;28.10;53.40;;;;;;5006262;28;20499;-79
2022/06/16 09:34:19;;;;;;;2.58;2.20;;;28.10;55.30;;;;;;4991836;28;20409;-79
2022/06/16 09:36:52;;;;;;;2.47;2.28;;;28.30;53.90;;;;;;5011100;28;20117;-77
2022/06/16 09:39:26;;;;;;;2.58;2.30;;;28.40;54.00;;;;;;5003262;28;20042;-80
2022/06/16 09:42:32;;;;;;;2.55;2.35;;;28.40;54.00;;;;;;5009342;28;20082;-79
2022/06/16 09:45:01;;;;;;;2.40;2.20;;;28.50;54.80;;;;;;4985321;28;20165;-80
2022/06/16 09:47:34;;;;;;;2.28;2.08;;;28.60;53.10;;;;;;5001183;28;20030;-78
2022/06/16 09:50:18;;;;;;;3.35;2.30;;;28.60;50.90;;;;;;5011073;28;20057;-79
2022/06/16 09:53:14;;;;;;;2.53;2.03;;;28.50;51.40;;;;;;5002395;28;20026;-79
2022/06/16 09:56:07;;;;;;;4.18;2.60;;;28.30;52.40;;;;;;5003360;28;20020;-80
2022/06/16 09:58:35;;;;;;;2.92;2.50;;;28.20;53.40;;;;;;5011603;28;20034;-78
2022/06/16 10:01:07;;;;;;;2.85;2.65;;;28.20;52.70;;;;;;5017148;28;20021;-78
2022/06/16 10:03:42;;;;;;;2.40;2.20;;;28.00;53.40;;;;;;5011289;28;20041;-77
2022/06/16 10:06:17;;;;;;;3.17;2.40;;;27.90;54.70;;;;;;5009640;28;20133;-78
2022/06/16 10:09:05;;;;;;;3.58;3.08;;;27.90;56.20;;;;;;5010092;28;20655;-79
2022/06/16 10:11:45;;;;;;;3.15;2.70;;;28.00;53.60;;;;;;5000167;28;20069;-79
2022/06/16 10:14:28;;;;;;;3.20;2.83;;;28.10;52.80;;;;;;4989907;28;20037;-78
2022/06/16 10:16:59;;;;;;;3.35;3.15;;;28.10;52.70;;;;;;5019466;28;20500;-79
2022/06/16 10:19:29;;;;;;;3.50;3.05;;;28.00;54.00;;;;;;5000573;28;20042;-79
2022/06/16 10:21:56;;;;;;;4.45;3.00;;;28.10;55.00;;;;;;5005509;28;20080;-79
2022/06/16 10:24:26;;;;;;;3.38;3.03;;;28.10;52.90;;;;;;5010715;28;20120;-78
2022/06/16 10:26:53;;;;;;;3.05;2.75;;;27.90;53.80;;;;;;5023179;28;20060;-78
2022/06/16 10:29:24;;;;;;;6.68;3.47;;;27.80;52.90;;;;;;4989998;28;20504;-79
2022/06/16 10:31:52;;;;;;;3.70;3.20;;;27.60;53.90;;;;;;5007780;28;20033;-79
2022/06/16 10:34:36;;;;;;;4.18;3.03;;;27.50;54.00;;;;;;4992382;28;20117;-79
2022/06/16 10:37:23;;;;;;;5.85;3.30;;;27.50;53.40;;;;;;5022154;28;20033;-79
2022/06/16 10:40:00;;;;;;;3.65;3.35;;;27.30;53.50;;;;;;5013108;28;20033;-79
2022/06/16 10:42:33;;;;;;;3.85;3.30;;;27.20;54.40;;;;;;5009403;28;20060;-78
2022/06/16 10:45:02;;;;;;;3.38;2.90;;;27.10;54.70;;;;;;5010379;28;20037;-79
2022/06/16 10:47:45;;;;;;;4.45;3.10;;;27.00;55.50;;;;;;5011154;28;20473;-79
2022/06/16 10:50:36;;;;;;;3.00;2.70;;;27.00;54.50;;;;;;5009076;28;20036;-79
2022/06/16 10:53:31;;;;;;;5.30;2.90;;;27.00;55.00;;;;;;4994457;28;20030;-79
2022/06/16 10:56:10;;;;;;;3.83;2.40;;;27.00;53.80;;;;;;5004983;28;20036;-80
2022/06/16 10:58:58;;;;;;;2.97;2.60;;;27.00;53.60;;;;;;5025824;28;20269;-80
2022/06/16 11:01:31;;;;;;;3.33;2.88;;;27.00;53.60;;;;;;5042215;28;20053;-80
2022/06/16 11:04:09;;;;;;;2.67;2.47;;;27.00;52.80;;;;;;5013944;28;20097;-81
2022/06/16 11:06:39;;;;;;;2.60;2.40;;;27.00;52.90;;;;;;5017950;28;20036;-80
2022/06/16 11:09:07;;;;;;;3.55;2.85;;;27.00;52.80;;;;;;5009601;28;20359;-81
2022/06/16 11:11:52;;;;;;;6.25;2.67;;;27.00;53.10;;;;;;5011389;28;20476;-82
2022/06/16 11:14:30;;;;;;;3.28;2.45;;;27.10;53.60;;;;;;5014527;28;20076;-81
2022/06/16 11:16:56;;;;;;;2.83;2.40;;;27.10;52.90;;;;;;5017041;28;20060;-82
2022/06/16 11:19:29;;;;;;;6.15;2.60;;;27.20;53.70;;;;;;5002304;28;20094;-80
2022/06/16 11:21:56;;;;;;;4.38;3.05;;;27.30;52.20;;;;;;5016246;28;20114;-81
2022/06/16 11:24:30;;;;;;;5.65;3.22;;;27.40;51.80;;;;;;4997788;28;20034;-79
2022/06/16 11:27:22;;;;;;;2.90;2.50;;;27.50;51.70;;;;;;4993304;28;20135;-79
2022/06/16 11:29:48;;;;;;;3.95;2.60;;;27.60;50.90;;;;;;5007270;28;20116;-78
2022/06/16 11:32:19;;;;;;;3.90;2.40;;;27.60;51.90;;;;;;5006101;28;20237;-79
2022/06/16 11:34:47;;;;;;;2.80;2.42;;;27.90;51.70;;;;;;5001900;28;20034;-80
2022/06/16 11:37:37;;;;;;;3.00;2.58;;;28.00;50.20;;;;;;5008887;28;20026;-79
2022/06/16 11:40:10;;;;;;;2.90;2.35;;;28.00;49.50;;;;;;4992565;28;20449;-79
2022/06/16 11:42:45;;;;;;;3.10;2.30;;;28.00;50.20;;;;;;4999083;28;20096;-79
2022/06/16 11:45:41;;;;;;;2.90;2.30;;;27.90;50.80;;;;;;5005014;28;20092;-81
2022/06/16 11:48:13;;;;;;;3.90;2.50;;;27.90;50.00;;;;;;5004542;28;20145;-81
2022/06/16 11:51:15;;;;;;;2.42;2.10;;;27.90;50.00;;;;;;4998611;28;20110;-79
2022/06/16 11:54:05;;;;;;;2.55;2.20;;;27.80;49.30;;;;;;5000574;28;20032;-79
2022/06/16 11:57:12;;;;;;;4.63;2.28;;;27.80;50.20;;;;;;5005556;28;20022;-80
2022/06/16 12:00:03;;;;;;;2.70;1.90;;;27.90;50.30;;;;;;5019462;28;20121;-77
2022/06/16 12:02:49;;;;;;;3.17;2.25;;;28.00;50.30;;;;;;4997798;28;20444;-79
2022/06/16 12:05:39;;;;;;;2.55;2.30;;;28.00;49.90;;;;;;4999447;28;20520;-78
2022/06/16 12:08:25;;;;;;;2.65;2.10;;;28.10;49.30;;;;;;4999989;28;20764;-77
2022/06/16 12:10:53;;;;;;;4.20;2.40;;;28.20;48.50;;;;;;5008875;28;20443;-80
2022/06/16 12:13:52;;;;;;;2.90;2.03;;;28.30;48.80;;;;;;5014662;28;20041;-78
2022/06/16 12:16:42;;;;;;;3.55;2.22;;;28.30;48.20;;;;;;5027537;28;20035;-80
2022/06/16 12:19:14;;;;;;;5.90;2.10;;;28.10;48.80;;;;;;5015469;28;20408;-78
2022/06/16 12:21:46;;;;;;;3.05;2.22;;;28.00;49.00;;;;;;5025546;28;20508;-78
2022/06/16 12:24:48;;;;;;;3.08;2.50;;;28.10;49.80;;;;;;5005415;28;20034;-78
2022/06/16 12:27:26;;;;;;;3.15;2.20;;;28.30;49.90;;;;;;5012311;28;20041;-78
2022/06/16 12:30:08;;;;;;;5.70;2.47;;;28.80;49.40;;;;;;5008312;28;20401;-81
2022/06/16 12:32:40;;;;;;;1.95;1.73;;;29.40;45.00;;;;;;5025063;28;20026;-78
2022/06/16 12:35:06;;;;;;;2.60;1.90;;;29.70;44.50;;;;;;5013983;28;20034;-78
2022/06/16 12:37:37;;;;;;;6.72;2.08;;;30.00;44.70;;;;;;5017403;28;20033;-79
2022/06/16 12:40:12;;;;;;;3.97;1.92;;;30.40;43.90;;;;;;5014493;28;20050;-80
2022/06/16 12:42:52;;;;;;;2.58;1.98;;;30.70;45.10;;;;;;4998019;28;20140;-78
2022/06/16 12:45:40;;;;;;;3.60;2.25;;;31.30;43.40;;;;;;5012530;28;20045;-79
2022/06/16 12:48:17;;;;;;;1.77;1.67;;;31.60;42.20;;;;;;5011163;28;20045;-78
2022/06/16 12:50:55;;;;;;;3.13;2.00;;;32.00;43.80;;;;;;5004036;28;20072;-79
2022/06/16 12:53:36;;;;;;;2.50;1.90;;;32.40;41.30;;;;;;5014042;28;20719;-78
2022/06/16 12:56:08;;;;;;;2.38;1.90;;;32.50;40.50;;;;;;5016784;28;20105;-78
2022/06/16 12:58:45;;;;;;;2.13;1.92;;;32.60;40.40;;;;;;5007540;28;20481;-78
2022/06/16 13:01:13;;;;;;;2.50;1.75;;;32.80;42.40;;;;;;5002582;28;20034;-78
2022/06/16 13:03:45;;;;;;;3.83;2.03;;;32.60;41.90;;;;;;5015233;28;20038;-79
2022/06/16 13:06:12;;;;;;;2.00;1.90;;;32.50;43.00;;;;;;5020341;28;20039;-78
2022/06/16 13:08:46;;;;;;;2.30;2.03;;;32.40;43.50;;;;;;5007691;28;20026;-78
2022/06/16 13:11:19;;;;;;;2.17;1.98;;;32.40;42.90;;;;;;5008412;28;20501;-78
2022/06/16 13:13:53;;;;;;;3.28;1.90;;;32.60;42.20;;;;;;4998333;28;20034;-78
2022/06/16 13:16:23;;;;;;;3.90;2.35;;;32.70;41.40;;;;;;5025097;28;20033;-79
2022/06/16 13:19:14;;;;;;;2.80;2.10;;;32.90;40.60;;;;;;5017228;28;20038;-78
2022/06/16 13:21:47;;;;;;;2.08;1.88;;;33.00;40.70;;;;;;5007284;28;20042;-79
2022/06/16 13:24:23;;;;;;;3.47;2.30;;;33.10;40.60;;;;;;5017232;28;20038;-81
2022/06/16 13:27:26;;;;;;;2.35;1.80;;;32.80;39.00;;;;;;5012754;28;20505;-79
2022/06/16 13:30:04;;;;;;;3.40;1.90;;;33.00;38.50;;;;;;5006267;28;20034;-78
2022/06/16 13:32:59;;;;;;;3.30;2.00;;;32.90;39.00;;;;;;5015408;28;20026;-79
2022/06/16 13:35:26;;;;;;;3.67;1.70;;;32.80;38.80;;;;;;5024132;28;20038;-78
2022/06/16 13:38:15;;;;;;;2.45;1.88;;;32.70;39.20;;;;;;5017471;28;20038;-78
2022/06/16 13:40:43;;;;;;;2.30;1.80;;;32.60;38.30;;;;;;5005825;28;20049;-78
2022/06/16 13:43:09;;;;;;;2.10;1.90;;;32.10;40.90;;;;;;5014575;28;20029;-79
2022/06/16 13:45:35;;;;;;;2.25;1.67;;;31.70;40.30;;;;;;5018311;28;20499;-81